sensor_id;sensor_type;location;lat;lon;timestamp;P1;durP1;ratioP1;P2;durP2;ratioP2
58302;SDS011;44109;52.398;7.024;2022-08-20T00:01:03;6.68;;;5.03;;
58302;SDS011;44109;52.398;7.024;2022-08-20T00:03:33;7.07;;;5.95;;
58302;SDS011;44109;52.398;7.024;2022-08-20T00:06:06;8.23;;;6.50;;
58302;SDS011;44109;52.398;7.024;2022-08-20T00:08:37;7.72;;;6.35;;
58302;SDS011;44109;52.398;7.024;2022-08-20T00:11:07;7.20;;;5.28;;
58302;SDS011;44109;52.398;7.024;2022-08-20T00:13:40;5.78;;;4.63;;
58302;SDS011;44109;52.398;7.024;2022-08-20T00:16:11;7.53;;;5.13;;
58302;SDS011;44109;52.398;7.024;2022-08-20T00:18:42;7.10;;;5.60;;
58302;SDS011;44109;52.398;7.024;2022-08-20T00:21:12;5.57;;;4.82;;
58302;SDS011;44109;52.398;7.024;2022-08-20T00:23:43;6.53;;;4.70;;
58302;SDS011;44109;52.398;7.024;2022-08-20T00:26:13;8.88;;;6.35;;
58302;SDS011;44109;52.398;7.024;2022-08-20T00:28:44;7.20;;;5.93;;
58302;SDS011;44109;52.398;7.024;2022-08-20T00:31:13;8.13;;;6.00;;
58302;SDS011;44109;52.398;7.024;2022-08-20T00:33:46;6.28;;;5.57;;
58302;SDS011;44109;52.398;7.024;2022-08-20T00:36:13;8.85;;;6.43;;
58302;SDS011;44109;52.398;7.024;2022-08-20T00:38:42;7.38;;;5.88;;
58302;SDS011;44109;52.398;7.024;2022-08-20T00:41:13;6.95;;;5.88;;
58302;SDS011;44109;52.398;7.024;2022-08-20T00:43:51;7.65;;;5.90;;
58302;SDS011;44109;52.398;7.024;2022-08-20T00:46:33;6.78;;;5.35;;
58302;SDS011;44109;52.398;7.024;2022-08-20T00:49:03;9.35;;;5.47;;
58302;SDS011;44109;52.398;7.024;2022-08-20T00:51:35;6.40;;;5.07;;
58302;SDS011;44109;52.398;7.024;2022-08-20T00:54:08;8.57;;;6.85;;
58302;SDS011;44109;52.398;7.024;2022-08-20T00:56:44;8.50;;;6.43;;
58302;SDS011;44109;52.398;7.024;2022-08-20T00:59:20;8.45;;;7.40;;
58302;SDS011;44109;52.398;7.024;2022-08-20T01:01:53;8.25;;;6.20;;
58302;SDS011;44109;52.398;7.024;2022-08-20T01:04:22;8.25;;;6.78;;
58302;SDS011;44109;52.398;7.024;2022-08-20T01:06:52;9.38;;;6.70;;
58302;SDS011;44109;52.398;7.024;2022-08-20T01:09:20;10.23;;;7.82;;
58302;SDS011;44109;52.398;7.024;2022-08-20T01:11:48;8.98;;;6.32;;
58302;SDS011;44109;52.398;7.024;2022-08-20T01:14:15;7.85;;;5.72;;
58302;SDS011;44109;52.398;7.024;2022-08-20T01:16:58;7.63;;;6.22;;
58302;SDS011;44109;52.398;7.024;2022-08-20T01:19:37;9.05;;;7.45;;
58302;SDS011;44109;52.398;7.024;2022-08-20T01:22:09;10.30;;;8.38;;
58302;SDS011;44109;52.398;7.024;2022-08-20T01:25:02;10.80;;;8.45;;
58302;SDS011;44109;52.398;7.024;2022-08-20T01:27:39;8.57;;;6.93;;
58302;SDS011;44109;52.398;7.024;2022-08-20T01:30:08;8.07;;;5.45;;
58302;SDS011;44109;52.398;7.024;2022-08-20T01:32:37;7.93;;;5.93;;
58302;SDS011;44109;52.398;7.024;2022-08-20T01:35:05;11.15;;;8.13;;
58302;SDS011;44109;52.398;7.024;2022-08-20T01:37:35;9.35;;;7.78;;
58302;SDS011;44109;52.398;7.024;2022-08-20T01:40:03;8.77;;;6.15;;
58302;SDS011;44109;52.398;7.024;2022-08-20T01:42:42;8.90;;;6.28;;
58302;SDS011;44109;52.398;7.024;2022-08-20T01:45:15;9.50;;;7.07;;
58302;SDS011;44109;52.398;7.024;2022-08-20T01:47:42;10.38;;;7.75;;
58302;SDS011;44109;52.398;7.024;2022-08-20T01:50:13;11.98;;;9.75;;
58302;SDS011;44109;52.398;7.024;2022-08-20T01:52:51;10.85;;;7.20;;
58302;SDS011;44109;52.398;7.024;2022-08-20T01:55:29;9.77;;;6.65;;
58302;SDS011;44109;52.398;7.024;2022-08-20T01:57:59;9.00;;;7.38;;
58302;SDS011;44109;52.398;7.024;2022-08-20T02:00:27;8.55;;;6.20;;
58302;SDS011;44109;52.398;7.024;2022-08-20T02:02:57;9.50;;;6.22;;
58302;SDS011;44109;52.398;7.024;2022-08-20T02:05:24;8.70;;;6.32;;
58302;SDS011;44109;52.398;7.024;2022-08-20T02:07:52;7.93;;;6.40;;
58302;SDS011;44109;52.398;7.024;2022-08-20T02:10:20;11.60;;;7.82;;
58302;SDS011;44109;52.398;7.024;2022-08-20T02:12:48;8.00;;;6.93;;
58302;SDS011;44109;52.398;7.024;2022-08-20T02:15:17;11.65;;;8.43;;
58302;SDS011;44109;52.398;7.024;2022-08-20T02:17:45;10.05;;;7.82;;
58302;SDS011;44109;52.398;7.024;2022-08-20T02:20:13;10.63;;;7.03;;
58302;SDS011;44109;52.398;7.024;2022-08-20T02:22:47;10.57;;;7.07;;
58302;SDS011;44109;52.398;7.024;2022-08-20T02:25:20;9.63;;;7.17;;
58302;SDS011;44109;52.398;7.024;2022-08-20T02:27:52;11.15;;;8.15;;
58302;SDS011;44109;52.398;7.024;2022-08-20T02:30:25;9.73;;;7.25;;
58302;SDS011;44109;52.398;7.024;2022-08-20T02:32:58;9.48;;;7.68;;
58302;SDS011;44109;52.398;7.024;2022-08-20T02:35:28;12.07;;;9.13;;
58302;SDS011;44109;52.398;7.024;2022-08-20T02:37:57;10.20;;;7.32;;
58302;SDS011;44109;52.398;7.024;2022-08-20T02:40:25;9.93;;;8.50;;
58302;SDS011;44109;52.398;7.024;2022-08-20T02:42:56;9.98;;;8.05;;
58302;SDS011;44109;52.398;7.024;2022-08-20T02:45:27;11.82;;;9.68;;
58302;SDS011;44109;52.398;7.024;2022-08-20T02:47:56;14.02;;;7.07;;
58302;SDS011;44109;52.398;7.024;2022-08-20T02:50:24;11.98;;;9.10;;
58302;SDS011;44109;52.398;7.024;2022-08-20T02:52:53;12.57;;;9.13;;
58302;SDS011;44109;52.398;7.024;2022-08-20T02:55:21;12.95;;;9.80;;
58302;SDS011;44109;52.398;7.024;2022-08-20T02:57:52;10.48;;;8.35;;
58302;SDS011;44109;52.398;7.024;2022-08-20T03:00:20;10.82;;;8.60;;
58302;SDS011;44109;52.398;7.024;2022-08-20T03:02:50;11.65;;;9.73;;
58302;SDS011;44109;52.398;7.024;2022-08-20T03:05:17;13.68;;;8.85;;
58302;SDS011;44109;52.398;7.024;2022-08-20T03:07:46;12.63;;;9.68;;
58302;SDS011;44109;52.398;7.024;2022-08-20T03:10:20;10.98;;;8.18;;
58302;SDS011;44109;52.398;7.024;2022-08-20T03:12:49;12.68;;;9.38;;
58302;SDS011;44109;52.398;7.024;2022-08-20T03:15:17;10.95;;;7.88;;
58302;SDS011;44109;52.398;7.024;2022-08-20T03:17:46;14.43;;;8.70;;
58302;SDS011;44109;52.398;7.024;2022-08-20T03:20:15;15.10;;;10.57;;
58302;SDS011;44109;52.398;7.024;2022-08-20T03:22:43;14.90;;;8.43;;
58302;SDS011;44109;52.398;7.024;2022-08-20T03:25:10;9.70;;;7.30;;
58302;SDS011;44109;52.398;7.024;2022-08-20T03:27:38;10.93;;;9.00;;
58302;SDS011;44109;52.398;7.024;2022-08-20T03:30:07;13.07;;;10.95;;
58302;SDS011;44109;52.398;7.024;2022-08-20T03:32:38;15.03;;;9.70;;
58302;SDS011;44109;52.398;7.024;2022-08-20T03:35:07;11.63;;;8.20;;
58302;SDS011;44109;52.398;7.024;2022-08-20T03:37:40;12.30;;;8.55;;
58302;SDS011;44109;52.398;7.024;2022-08-20T03:40:09;11.82;;;8.27;;
58302;SDS011;44109;52.398;7.024;2022-08-20T03:42:41;13.60;;;8.55;;
58302;SDS011;44109;52.398;7.024;2022-08-20T03:45:09;10.55;;;8.30;;
58302;SDS011;44109;52.398;7.024;2022-08-20T03:47:38;12.35;;;8.63;;
58302;SDS011;44109;52.398;7.024;2022-08-20T03:50:07;11.05;;;7.90;;
58302;SDS011;44109;52.398;7.024;2022-08-20T03:52:36;10.25;;;7.95;;
58302;SDS011;44109;52.398;7.024;2022-08-20T03:55:05;11.73;;;9.02;;
58302;SDS011;44109;52.398;7.024;2022-08-20T03:57:42;10.60;;;7.43;;
58302;SDS011;44109;52.398;7.024;2022-08-20T04:00:13;12.15;;;7.50;;
58302;SDS011;44109;52.398;7.024;2022-08-20T04:02:46;11.88;;;8.35;;
58302;SDS011;44109;52.398;7.024;2022-08-20T04:05:13;9.57;;;7.55;;
58302;SDS011;44109;52.398;7.024;2022-08-20T04:07:41;11.43;;;7.13;;
58302;SDS011;44109;52.398;7.024;2022-08-20T04:10:11;10.98;;;8.90;;
58302;SDS011;44109;52.398;7.024;2022-08-20T04:12:39;11.45;;;8.40;;
58302;SDS011;44109;52.398;7.024;2022-08-20T04:15:08;11.20;;;8.35;;
58302;SDS011;44109;52.398;7.024;2022-08-20T04:17:38;13.15;;;9.63;;
58302;SDS011;44109;52.398;7.024;2022-08-20T04:20:09;17.95;;;10.55;;
58302;SDS011;44109;52.398;7.024;2022-08-20T04:22:43;12.95;;;10.60;;
58302;SDS011;44109;52.398;7.024;2022-08-20T04:25:14;12.85;;;10.82;;
58302;SDS011;44109;52.398;7.024;2022-08-20T04:27:42;13.55;;;8.48;;
58302;SDS011;44109;52.398;7.024;2022-08-20T04:30:12;13.00;;;9.10;;
58302;SDS011;44109;52.398;7.024;2022-08-20T04:32:40;11.88;;;8.60;;
58302;SDS011;44109;52.398;7.024;2022-08-20T04:35:09;13.95;;;9.88;;
58302;SDS011;44109;52.398;7.024;2022-08-20T04:37:40;13.35;;;8.45;;
58302;SDS011;44109;52.398;7.024;2022-08-20T04:40:10;15.05;;;9.68;;
58302;SDS011;44109;52.398;7.024;2022-08-20T04:42:59;18.02;;;9.20;;
58302;SDS011;44109;52.398;7.024;2022-08-20T04:45:29;9.85;;;6.97;;
58302;SDS011;44109;52.398;7.024;2022-08-20T04:48:00;13.85;;;9.40;;
58302;SDS011;44109;52.398;7.024;2022-08-20T04:50:30;13.40;;;9.63;;
58302;SDS011;44109;52.398;7.024;2022-08-20T04:53:00;14.15;;;8.23;;
58302;SDS011;44109;52.398;7.024;2022-08-20T04:55:31;12.27;;;7.85;;
58302;SDS011;44109;52.398;7.024;2022-08-20T04:58:03;11.57;;;8.30;;
58302;SDS011;44109;52.398;7.024;2022-08-20T05:00:33;9.93;;;7.15;;
58302;SDS011;44109;52.398;7.024;2022-08-20T05:03:00;14.65;;;10.45;;
58302;SDS011;44109;52.398;7.024;2022-08-20T05:05:28;14.13;;;9.70;;
58302;SDS011;44109;52.398;7.024;2022-08-20T05:07:56;14.57;;;9.63;;
58302;SDS011;44109;52.398;7.024;2022-08-20T05:10:23;14.15;;;10.30;;
58302;SDS011;44109;52.398;7.024;2022-08-20T05:12:52;11.75;;;8.90;;
58302;SDS011;44109;52.398;7.024;2022-08-20T05:15:20;12.13;;;9.13;;
58302;SDS011;44109;52.398;7.024;2022-08-20T05:17:52;12.18;;;8.90;;
58302;SDS011;44109;52.398;7.024;2022-08-20T05:20:22;15.98;;;11.18;;
58302;SDS011;44109;52.398;7.024;2022-08-20T05:22:50;14.80;;;9.77;;
58302;SDS011;44109;52.398;7.024;2022-08-20T05:25:17;13.43;;;9.75;;
58302;SDS011;44109;52.398;7.024;2022-08-20T05:27:46;13.25;;;9.40;;
58302;SDS011;44109;52.398;7.024;2022-08-20T05:30:15;12.30;;;8.27;;
58302;SDS011;44109;52.398;7.024;2022-08-20T05:32:43;11.65;;;7.93;;
58302;SDS011;44109;52.398;7.024;2022-08-20T05:35:11;10.63;;;8.05;;
58302;SDS011;44109;52.398;7.024;2022-08-20T05:37:39;15.02;;;10.82;;
58302;SDS011;44109;52.398;7.024;2022-08-20T05:40:08;9.95;;;7.47;;
58302;SDS011;44109;52.398;7.024;2022-08-20T05:42:39;13.10;;;9.23;;
58302;SDS011;44109;52.398;7.024;2022-08-20T05:45:08;11.65;;;8.00;;
58302;SDS011;44109;52.398;7.024;2022-08-20T05:47:39;15.57;;;9.18;;
58302;SDS011;44109;52.398;7.024;2022-08-20T05:50:07;12.70;;;9.57;;
58302;SDS011;44109;52.398;7.024;2022-08-20T05:52:37;14.30;;;9.95;;
58302;SDS011;44109;52.398;7.024;2022-08-20T05:55:06;14.77;;;11.40;;
58302;SDS011;44109;52.398;7.024;2022-08-20T05:57:38;13.65;;;10.23;;
58302;SDS011;44109;52.398;7.024;2022-08-20T06:00:08;16.67;;;10.40;;
58302;SDS011;44109;52.398;7.024;2022-08-20T06:02:41;15.00;;;11.05;;
58302;SDS011;44109;52.398;7.024;2022-08-20T06:05:26;12.07;;;9.05;;
58302;SDS011;44109;52.398;7.024;2022-08-20T06:07:53;10.63;;;8.60;;
58302;SDS011;44109;52.398;7.024;2022-08-20T06:10:21;14.45;;;9.45;;
58302;SDS011;44109;52.398;7.024;2022-08-20T06:12:49;10.52;;;7.35;;
58302;SDS011;44109;52.398;7.024;2022-08-20T06:15:18;9.43;;;7.28;;
58302;SDS011;44109;52.398;7.024;2022-08-20T06:17:48;11.05;;;7.25;;
58302;SDS011;44109;52.398;7.024;2022-08-20T06:20:15;13.70;;;7.68;;
58302;SDS011;44109;52.398;7.024;2022-08-20T06:22:43;9.07;;;6.25;;
58302;SDS011;44109;52.398;7.024;2022-08-20T06:25:10;8.85;;;6.90;;
58302;SDS011;44109;52.398;7.024;2022-08-20T06:27:38;9.32;;;5.50;;
58302;SDS011;44109;52.398;7.024;2022-08-20T06:30:09;12.65;;;6.53;;
58302;SDS011;44109;52.398;7.024;2022-08-20T06:32:40;11.23;;;5.25;;
58302;SDS011;44109;52.398;7.024;2022-08-20T06:35:09;7.65;;;5.10;;
58302;SDS011;44109;52.398;7.024;2022-08-20T06:37:38;12.40;;;4.40;;
58302;SDS011;44109;52.398;7.024;2022-08-20T06:40:10;7.75;;;4.07;;
58302;SDS011;44109;52.398;7.024;2022-08-20T06:42:41;7.15;;;3.85;;
58302;SDS011;44109;52.398;7.024;2022-08-20T06:45:10;6.60;;;4.07;;
58302;SDS011;44109;52.398;7.024;2022-08-20T06:47:41;6.40;;;3.95;;
58302;SDS011;44109;52.398;7.024;2022-08-20T06:50:13;5.80;;;3.25;;
58302;SDS011;44109;52.398;7.024;2022-08-20T06:52:44;5.28;;;3.10;;
58302;SDS011;44109;52.398;7.024;2022-08-20T06:55:13;7.57;;;3.13;;
58302;SDS011;44109;52.398;7.024;2022-08-20T06:57:42;7.03;;;3.50;;
58302;SDS011;44109;52.398;7.024;2022-08-20T07:00:13;6.22;;;2.88;;
58302;SDS011;44109;52.398;7.024;2022-08-20T07:02:45;10.68;;;3.00;;
58302;SDS011;44109;52.398;7.024;2022-08-20T07:05:14;7.03;;;2.40;;
58302;SDS011;44109;52.398;7.024;2022-08-20T07:07:43;6.57;;;3.33;;
58302;SDS011;44109;52.398;7.024;2022-08-20T07:10:13;6.38;;;3.35;;
58302;SDS011;44109;52.398;7.024;2022-08-20T07:12:42;8.80;;;2.60;;
58302;SDS011;44109;52.398;7.024;2022-08-20T07:15:12;5.97;;;3.55;;
58302;SDS011;44109;52.398;7.024;2022-08-20T07:17:41;8.40;;;3.33;;
58302;SDS011;44109;52.398;7.024;2022-08-20T07:20:10;5.43;;;2.97;;
58302;SDS011;44109;52.398;7.024;2022-08-20T07:22:42;6.47;;;2.63;;
58302;SDS011;44109;52.398;7.024;2022-08-20T07:25:12;8.95;;;3.72;;
58302;SDS011;44109;52.398;7.024;2022-08-20T07:27:43;6.68;;;3.03;;
58302;SDS011;44109;52.398;7.024;2022-08-20T07:30:13;3.50;;;2.33;;
58302;SDS011;44109;52.398;7.024;2022-08-20T07:33:02;4.65;;;2.80;;
58302;SDS011;44109;52.398;7.024;2022-08-20T07:35:31;8.48;;;2.75;;
58302;SDS011;44109;52.398;7.024;2022-08-20T07:37:58;6.03;;;2.47;;
58302;SDS011;44109;52.398;7.024;2022-08-20T07:40:27;6.88;;;3.00;;
58302;SDS011;44109;52.398;7.024;2022-08-20T07:42:59;6.03;;;1.75;;
58302;SDS011;44109;52.398;7.024;2022-08-20T07:45:28;6.18;;;2.00;;
58302;SDS011;44109;52.398;7.024;2022-08-20T07:48:04;6.15;;;2.15;;
58302;SDS011;44109;52.398;7.024;2022-08-20T07:50:35;6.93;;;2.15;;
58302;SDS011;44109;52.398;7.024;2022-08-20T07:53:02;7.15;;;2.83;;
58302;SDS011;44109;52.398;7.024;2022-08-20T07:55:30;6.68;;;2.80;;
58302;SDS011;44109;52.398;7.024;2022-08-20T07:57:58;7.97;;;2.38;;
58302;SDS011;44109;52.398;7.024;2022-08-20T08:00:34;7.22;;;2.45;;
58302;SDS011;44109;52.398;7.024;2022-08-20T08:03:02;5.70;;;2.50;;
58302;SDS011;44109;52.398;7.024;2022-08-20T08:05:30;8.18;;;3.00;;
58302;SDS011;44109;52.398;7.024;2022-08-20T08:08:00;6.30;;;2.33;;
58302;SDS011;44109;52.398;7.024;2022-08-20T08:10:29;4.38;;;2.10;;
58302;SDS011;44109;52.398;7.024;2022-08-20T08:12:58;7.38;;;2.60;;
58302;SDS011;44109;52.398;7.024;2022-08-20T08:15:31;5.47;;;2.40;;
58302;SDS011;44109;52.398;7.024;2022-08-20T08:18:04;6.97;;;2.50;;
58302;SDS011;44109;52.398;7.024;2022-08-20T08:20:38;6.75;;;2.35;;
58302;SDS011;44109;52.398;7.024;2022-08-20T08:23:11;3.60;;;2.25;;
58302;SDS011;44109;52.398;7.024;2022-08-20T08:25:39;5.05;;;2.03;;
58302;SDS011;44109;52.398;7.024;2022-08-20T08:28:07;7.35;;;2.70;;
58302;SDS011;44109;52.398;7.024;2022-08-20T08:30:36;9.02;;;2.55;;
58302;SDS011;44109;52.398;7.024;2022-08-20T08:33:05;3.72;;;1.67;;
58302;SDS011;44109;52.398;7.024;2022-08-20T08:35:50;4.82;;;2.42;;
58302;SDS011;44109;52.398;7.024;2022-08-20T08:38:20;6.10;;;2.25;;
58302;SDS011;44109;52.398;7.024;2022-08-20T08:40:50;6.10;;;2.40;;
58302;SDS011;44109;52.398;7.024;2022-08-20T08:43:22;5.60;;;2.38;;
58302;SDS011;44109;52.398;7.024;2022-08-20T08:45:57;3.75;;;1.83;;
58302;SDS011;44109;52.398;7.024;2022-08-20T08:48:30;4.28;;;2.03;;
58302;SDS011;44109;52.398;7.024;2022-08-20T08:51:02;4.97;;;1.87;;
58302;SDS011;44109;52.398;7.024;2022-08-20T08:53:39;6.97;;;2.15;;
58302;SDS011;44109;52.398;7.024;2022-08-20T08:56:19;7.22;;;2.53;;
58302;SDS011;44109;52.398;7.024;2022-08-20T08:58:50;4.32;;;1.63;;
58302;SDS011;44109;52.398;7.024;2022-08-20T09:01:21;5.97;;;1.75;;
58302;SDS011;44109;52.398;7.024;2022-08-20T09:03:51;4.72;;;2.20;;
58302;SDS011;44109;52.398;7.024;2022-08-20T09:06:20;7.25;;;1.70;;
58302;SDS011;44109;52.398;7.024;2022-08-20T09:08:55;6.32;;;2.50;;
58302;SDS011;44109;52.398;7.024;2022-08-20T09:11:27;3.40;;;1.50;;
58302;SDS011;44109;52.398;7.024;2022-08-20T09:13:56;5.90;;;1.67;;
58302;SDS011;44109;52.398;7.024;2022-08-20T09:16:24;4.70;;;1.70;;
58302;SDS011;44109;52.398;7.024;2022-08-20T09:18:53;7.30;;;1.95;;
58302;SDS011;44109;52.398;7.024;2022-08-20T09:21:21;5.35;;;1.63;;
58302;SDS011;44109;52.398;7.024;2022-08-20T09:23:48;5.78;;;1.75;;
58302;SDS011;44109;52.398;7.024;2022-08-20T09:26:17;4.80;;;1.60;;
58302;SDS011;44109;52.398;7.024;2022-08-20T09:28:45;5.57;;;1.90;;
58302;SDS011;44109;52.398;7.024;2022-08-20T09:31:12;4.53;;;1.50;;
58302;SDS011;44109;52.398;7.024;2022-08-20T09:33:40;5.55;;;1.50;;
58302;SDS011;44109;52.398;7.024;2022-08-20T09:36:07;3.47;;;1.50;;
58302;SDS011;44109;52.398;7.024;2022-08-20T09:38:35;5.93;;;1.92;;
58302;SDS011;44109;52.398;7.024;2022-08-20T09:41:02;3.75;;;1.73;;
58302;SDS011;44109;52.398;7.024;2022-08-20T09:43:32;5.40;;;1.60;;
58302;SDS011;44109;52.398;7.024;2022-08-20T09:45:59;7.35;;;1.80;;
58302;SDS011;44109;52.398;7.024;2022-08-20T09:48:27;6.00;;;2.05;;
58302;SDS011;44109;52.398;7.024;2022-08-20T09:50:54;4.10;;;1.50;;
58302;SDS011;44109;52.398;7.024;2022-08-20T09:53:22;7.57;;;1.90;;
58302;SDS011;44109;52.398;7.024;2022-08-20T09:55:50;5.68;;;1.73;;
58302;SDS011;44109;52.398;7.024;2022-08-20T09:58:22;5.57;;;1.27;;
58302;SDS011;44109;52.398;7.024;2022-08-20T10:01:07;3.60;;;1.20;;
58302;SDS011;44109;52.398;7.024;2022-08-20T10:06:07;7.47;;;1.92;;
58302;SDS011;44109;52.398;7.024;2022-08-20T10:08:36;5.85;;;1.92;;
58302;SDS011;44109;52.398;7.024;2022-08-20T10:11:04;3.42;;;1.45;;
58302;SDS011;44109;52.398;7.024;2022-08-20T10:13:32;4.00;;;1.83;;
58302;SDS011;44109;52.398;7.024;2022-08-20T10:16:01;3.55;;;1.67;;
58302;SDS011;44109;52.398;7.024;2022-08-20T10:18:29;3.15;;;1.63;;
58302;SDS011;44109;52.398;7.024;2022-08-20T10:20:57;6.25;;;1.85;;
58302;SDS011;44109;52.398;7.024;2022-08-20T10:23:24;4.72;;;2.22;;
58302;SDS011;44109;52.398;7.024;2022-08-20T10:25:52;6.07;;;2.30;;
58302;SDS011;44109;52.398;7.024;2022-08-20T10:28:19;3.53;;;1.70;;
58302;SDS011;44109;52.398;7.024;2022-08-20T10:30:47;8.07;;;2.45;;
58302;SDS011;44109;52.398;7.024;2022-08-20T10:33:16;5.78;;;1.65;;
58302;SDS011;44109;52.398;7.024;2022-08-20T10:35:43;4.03;;;1.83;;
58302;SDS011;44109;52.398;7.024;2022-08-20T10:38:11;8.07;;;2.60;;
58302;SDS011;44109;52.398;7.024;2022-08-20T10:40:38;4.43;;;1.75;;
58302;SDS011;44109;52.398;7.024;2022-08-20T10:43:06;2.92;;;1.83;;
58302;SDS011;44109;52.398;7.024;2022-08-20T10:45:33;7.72;;;2.03;;
58302;SDS011;44109;52.398;7.024;2022-08-20T10:48:01;3.92;;;1.55;;
58302;SDS011;44109;52.398;7.024;2022-08-20T10:50:30;4.57;;;1.55;;
58302;SDS011;44109;52.398;7.024;2022-08-20T10:52:58;4.55;;;1.92;;
58302;SDS011;44109;52.398;7.024;2022-08-20T10:55:25;3.97;;;1.45;;
58302;SDS011;44109;52.398;7.024;2022-08-20T10:57:53;5.75;;;1.40;;
58302;SDS011;44109;52.398;7.024;2022-08-20T11:00:21;7.45;;;1.40;;
58302;SDS011;44109;52.398;7.024;2022-08-20T11:02:48;7.95;;;1.83;;
58302;SDS011;44109;52.398;7.024;2022-08-20T11:05:16;5.40;;;2.00;;
58302;SDS011;44109;52.398;7.024;2022-08-20T11:07:45;3.80;;;1.55;;
58302;SDS011;44109;52.398;7.024;2022-08-20T11:10:13;6.45;;;1.52;;
58302;SDS011;44109;52.398;7.024;2022-08-20T11:12:42;5.82;;;2.00;;
58302;SDS011;44109;52.398;7.024;2022-08-20T11:15:10;6.38;;;1.42;;
58302;SDS011;44109;52.398;7.024;2022-08-20T11:17:39;4.97;;;2.20;;
58302;SDS011;44109;52.398;7.024;2022-08-20T11:20:09;3.20;;;1.35;;
58302;SDS011;44109;52.398;7.024;2022-08-20T11:22:39;5.97;;;2.40;;
58302;SDS011;44109;52.398;7.024;2022-08-20T11:25:09;6.45;;;1.60;;
58302;SDS011;44109;52.398;7.024;2022-08-20T11:27:38;4.45;;;1.38;;
58302;SDS011;44109;52.398;7.024;2022-08-20T11:30:09;7.05;;;1.85;;
58302;SDS011;44109;52.398;7.024;2022-08-20T11:32:40;4.50;;;2.05;;
58302;SDS011;44109;52.398;7.024;2022-08-20T11:35:08;7.50;;;1.35;;
58302;SDS011;44109;52.398;7.024;2022-08-20T11:37:36;2.88;;;1.30;;
58302;SDS011;44109;52.398;7.024;2022-08-20T11:40:04;5.63;;;1.52;;
58302;SDS011;44109;52.398;7.024;2022-08-20T11:42:34;5.53;;;1.58;;
58302;SDS011;44109;52.398;7.024;2022-08-20T11:45:02;4.30;;;1.60;;
58302;SDS011;44109;52.398;7.024;2022-08-20T11:47:31;4.10;;;1.77;;
58302;SDS011;44109;52.398;7.024;2022-08-20T11:50:01;5.75;;;1.90;;
58302;SDS011;44109;52.398;7.024;2022-08-20T11:52:33;4.93;;;1.52;;
58302;SDS011;44109;52.398;7.024;2022-08-20T11:55:01;6.57;;;1.92;;
58302;SDS011;44109;52.398;7.024;2022-08-20T11:57:31;3.58;;;1.20;;
58302;SDS011;44109;52.398;7.024;2022-08-20T12:00:04;4.55;;;1.30;;
58302;SDS011;44109;52.398;7.024;2022-08-20T12:02:37;4.05;;;1.30;;
58302;SDS011;44109;52.398;7.024;2022-08-20T12:05:06;2.70;;;1.42;;
58302;SDS011;44109;52.398;7.024;2022-08-20T12:07:34;6.72;;;1.73;;
58302;SDS011;44109;52.398;7.024;2022-08-20T12:10:02;8.88;;;2.13;;
58302;SDS011;44109;52.398;7.024;2022-08-20T12:12:31;3.78;;;1.48;;
58302;SDS011;44109;52.398;7.024;2022-08-20T12:15:00;5.18;;;1.67;;
58302;SDS011;44109;52.398;7.024;2022-08-20T12:17:28;5.65;;;1.50;;
58302;SDS011;44109;52.398;7.024;2022-08-20T12:19:58;5.05;;;1.83;;
58302;SDS011;44109;52.398;7.024;2022-08-20T12:22:29;4.57;;;1.20;;
58302;SDS011;44109;52.398;7.024;2022-08-20T12:24:56;4.53;;;1.58;;
58302;SDS011;44109;52.398;7.024;2022-08-20T12:27:25;4.72;;;1.50;;
58302;SDS011;44109;52.398;7.024;2022-08-20T12:29:56;7.20;;;1.70;;
58302;SDS011;44109;52.398;7.024;2022-08-20T12:32:28;7.70;;;1.80;;
58302;SDS011;44109;52.398;7.024;2022-08-20T12:34:58;10.63;;;1.63;;
58302;SDS011;44109;52.398;7.024;2022-08-20T12:37:27;3.58;;;1.40;;
58302;SDS011;44109;52.398;7.024;2022-08-20T12:39:57;4.05;;;1.20;;
58302;SDS011;44109;52.398;7.024;2022-08-20T12:42:27;6.68;;;1.85;;
58302;SDS011;44109;52.398;7.024;2022-08-20T12:44:55;3.40;;;1.42;;
58302;SDS011;44109;52.398;7.024;2022-08-20T12:47:25;7.80;;;1.83;;
58302;SDS011;44109;52.398;7.024;2022-08-20T12:49:57;4.65;;;1.40;;
58302;SDS011;44109;52.398;7.024;2022-08-20T12:52:28;3.05;;;1.10;;
58302;SDS011;44109;52.398;7.024;2022-08-20T12:54:57;4.75;;;1.30;;
58302;SDS011;44109;52.398;7.024;2022-08-20T12:57:26;4.22;;;1.10;;
58302;SDS011;44109;52.398;7.024;2022-08-20T12:59:57;4.97;;;1.83;;
58302;SDS011;44109;52.398;7.024;2022-08-20T13:02:29;2.50;;;1.13;;
58302;SDS011;44109;52.398;7.024;2022-08-20T13:04:57;3.08;;;1.00;;
58302;SDS011;44109;52.398;7.024;2022-08-20T13:07:25;5.18;;;1.33;;
58302;SDS011;44109;52.398;7.024;2022-08-20T13:09:53;6.45;;;1.33;;
58302;SDS011;44109;52.398;7.024;2022-08-20T13:12:20;2.85;;;1.25;;
58302;SDS011;44109;52.398;7.024;2022-08-20T13:14:48;3.20;;;1.00;;
58302;SDS011;44109;52.398;7.024;2022-08-20T13:17:16;4.03;;;1.23;;
58302;SDS011;44109;52.398;7.024;2022-08-20T13:19:46;5.18;;;1.17;;
58302;SDS011;44109;52.398;7.024;2022-08-20T13:22:13;3.95;;;1.27;;
58302;SDS011;44109;52.398;7.024;2022-08-20T13:24:42;6.63;;;1.88;;
58302;SDS011;44109;52.398;7.024;2022-08-20T13:27:10;4.10;;;1.13;;
58302;SDS011;44109;52.398;7.024;2022-08-20T13:29:44;7.10;;;1.60;;
58302;SDS011;44109;52.398;7.024;2022-08-20T13:32:13;4.85;;;1.13;;
58302;SDS011;44109;52.398;7.024;2022-08-20T13:34:40;2.15;;;1.17;;
58302;SDS011;44109;52.398;7.024;2022-08-20T13:37:12;4.45;;;1.30;;
58302;SDS011;44109;52.398;7.024;2022-08-20T13:39:41;4.18;;;1.27;;
58302;SDS011;44109;52.398;7.024;2022-08-20T13:42:09;3.38;;;1.20;;
58302;SDS011;44109;52.398;7.024;2022-08-20T13:44:38;2.90;;;1.02;;
58302;SDS011;44109;52.398;7.024;2022-08-20T13:47:13;3.78;;;1.40;;
58302;SDS011;44109;52.398;7.024;2022-08-20T13:49:43;3.92;;;1.48;;
58302;SDS011;44109;52.398;7.024;2022-08-20T13:52:13;2.42;;;1.00;;
58302;SDS011;44109;52.398;7.024;2022-08-20T13:54:41;4.32;;;1.52;;
58302;SDS011;44109;52.398;7.024;2022-08-20T13:57:10;5.38;;;1.70;;
58302;SDS011;44109;52.398;7.024;2022-08-20T13:59:41;4.60;;;1.45;;
58302;SDS011;44109;52.398;7.024;2022-08-20T14:02:11;2.58;;;1.10;;
58302;SDS011;44109;52.398;7.024;2022-08-20T14:04:39;4.00;;;1.05;;
58302;SDS011;44109;52.398;7.024;2022-08-20T14:07:08;4.03;;;1.20;;
58302;SDS011;44109;52.398;7.024;2022-08-20T14:09:39;2.83;;;1.00;;
58302;SDS011;44109;52.398;7.024;2022-08-20T14:12:10;4.90;;;1.35;;
58302;SDS011;44109;52.398;7.024;2022-08-20T14:14:39;3.17;;;1.25;;
58302;SDS011;44109;52.398;7.024;2022-08-20T14:17:12;3.45;;;0.98;;
58302;SDS011;44109;52.398;7.024;2022-08-20T14:19:41;3.25;;;1.13;;
58302;SDS011;44109;52.398;7.024;2022-08-20T14:22:09;4.10;;;1.45;;
58302;SDS011;44109;52.398;7.024;2022-08-20T14:24:38;2.55;;;0.88;;
58302;SDS011;44109;52.398;7.024;2022-08-20T14:27:06;5.88;;;1.55;;
58302;SDS011;44109;52.398;7.024;2022-08-20T14:29:36;2.58;;;0.98;;
58302;SDS011;44109;52.398;7.024;2022-08-20T14:32:06;3.90;;;1.40;;
58302;SDS011;44109;52.398;7.024;2022-08-20T14:34:34;5.65;;;1.50;;
58302;SDS011;44109;52.398;7.024;2022-08-20T14:37:08;3.63;;;1.15;;
58302;SDS011;44109;52.398;7.024;2022-08-20T14:39:43;4.45;;;1.40;;
58302;SDS011;44109;52.398;7.024;2022-08-20T14:42:13;4.38;;;1.27;;
58302;SDS011;44109;52.398;7.024;2022-08-20T14:44:41;3.05;;;1.02;;
58302;SDS011;44109;52.398;7.024;2022-08-20T14:47:11;1.90;;;0.90;;
58302;SDS011;44109;52.398;7.024;2022-08-20T14:49:42;3.67;;;1.33;;
58302;SDS011;44109;52.398;7.024;2022-08-20T14:52:11;4.15;;;1.10;;
58302;SDS011;44109;52.398;7.024;2022-08-20T14:54:41;4.18;;;1.08;;
58302;SDS011;44109;52.398;7.024;2022-08-20T14:57:12;9.57;;;2.03;;
58302;SDS011;44109;52.398;7.024;2022-08-20T14:59:42;3.08;;;1.00;;
58302;SDS011;44109;52.398;7.024;2022-08-20T15:02:12;3.33;;;1.02;;